sensor_id;sensor_type;location;lat;lon;timestamp;temperature;humidity
9329;DHT22;4703;48.748;19.142;2023-09-18T00:01:07;17.50;99.90
9329;DHT22;4703;48.748;19.142;2023-09-18T00:03:35;17.50;99.90
9329;DHT22;4703;48.748;19.142;2023-09-18T00:06:02;17.50;99.90
9329;DHT22;4703;48.748;19.142;2023-09-18T00:08:29;17.40;99.90
9329;DHT22;4703;48.748;19.142;2023-09-18T00:10:58;17.40;99.90
9329;DHT22;4703;48.748;19.142;2023-09-18T00:13:27;17.40;99.90
9329;DHT22;4703;48.748;19.142;2023-09-18T00:15:55;17.40;99.90
9329;DHT22;4703;48.748;19.142;2023-09-18T00:18:22;17.30;99.90
9329;DHT22;4703;48.748;19.142;2023-09-18T00:20:50;17.30;99.90
9329;DHT22;4703;48.748;19.142;2023-09-18T00:23:18;18.60;99.90
9329;DHT22;4703;48.748;19.142;2023-09-18T00:25:46;17.30;99.90
9329;DHT22;4703;48.748;19.142;2023-09-18T00:28:12;18.90;99.90
9329;DHT22;4703;48.748;19.142;2023-09-18T00:30:47;17.30;99.90
9329;DHT22;4703;48.748;19.142;2023-09-18T00:33:16;17.30;99.90
9329;DHT22;4703;48.748;19.142;2023-09-18T00:35:50;17.20;99.90
9329;DHT22;4703;48.748;19.142;2023-09-18T00:38:18;17.20;99.90
9329;DHT22;4703;48.748;19.142;2023-09-18T00:40:46;17.20;99.90
9329;DHT22;4703;48.748;19.142;2023-09-18T00:43:13;17.20;99.90
9329;DHT22;4703;48.748;19.142;2023-09-18T00:45:42;17.30;99.90
9329;DHT22;4703;48.748;19.142;2023-09-18T00:48:12;17.80;99.90
9329;DHT22;4703;48.748;19.142;2023-09-18T00:50:44;17.30;99.90
9329;DHT22;4703;48.748;19.142;2023-09-18T00:53:17;17.20;99.90
9329;DHT22;4703;48.748;19.142;2023-09-18T00:55:47;17.30;99.90
9329;DHT22;4703;48.748;19.142;2023-09-18T00:58:15;17.30;99.90
9329;DHT22;4703;48.748;19.142;2023-09-18T01:00:45;17.30;99.90
9329;DHT22;4703;48.748;19.142;2023-09-18T01:03:12;17.30;99.90
9329;DHT22;4703;48.748;19.142;2023-09-18T01:05:39;17.30;99.90
9329;DHT22;4703;48.748;19.142;2023-09-18T01:08:06;17.30;99.90
9329;DHT22;4703;48.748;19.142;2023-09-18T01:10:55;17.30;99.90
9329;DHT22;4703;48.748;19.142;2023-09-18T01:13:57;17.30;99.90
9329;DHT22;4703;48.748;19.142;2023-09-18T01:16:36;17.30;99.90
9329;DHT22;4703;48.748;19.142;2023-09-18T01:19:08;17.30;99.90
9329;DHT22;4703;48.748;19.142;2023-09-18T01:21:35;17.30;99.90
9329;DHT22;4703;48.748;19.142;2023-09-18T01:24:02;17.40;99.90
9329;DHT22;4703;48.748;19.142;2023-09-18T01:26:29;17.30;99.90
9329;DHT22;4703;48.748;19.142;2023-09-18T01:28:57;17.40;99.90
9329;DHT22;4703;48.748;19.142;2023-09-18T01:31:24;17.40;99.90
9329;DHT22;4703;48.748;19.142;2023-09-18T01:33:54;17.40;99.90
9329;DHT22;4703;48.748;19.142;2023-09-18T01:36:22;17.40;99.90
9329;DHT22;4703;48.748;19.142;2023-09-18T01:38:50;17.40;99.90
9329;DHT22;4703;48.748;19.142;2023-09-18T01:41:17;17.40;99.90
9329;DHT22;4703;48.748;19.142;2023-09-18T01:43:45;17.40;99.90
9329;DHT22;4703;48.748;19.142;2023-09-18T01:46:13;17.40;99.90
9329;DHT22;4703;48.748;19.142;2023-09-18T01:48:46;17.40;99.90
9329;DHT22;4703;48.748;19.142;2023-09-18T01:51:14;17.40;99.90
9329;DHT22;4703;48.748;19.142;2023-09-18T01:53:42;17.40;99.90
9329;DHT22;4703;48.748;19.142;2023-09-18T01:56:09;17.40;99.90
9329;DHT22;4703;48.748;19.142;2023-09-18T01:58:36;17.40;99.90
9329;DHT22;4703;48.748;19.142;2023-09-18T02:01:04;17.40;99.90
9329;DHT22;4703;48.748;19.142;2023-09-18T02:03:31;17.40;99.90
9329;DHT22;4703;48.748;19.142;2023-09-18T02:06:18;17.40;99.90
9329;DHT22;4703;48.748;19.142;2023-09-18T02:08:45;17.50;99.90
9329;DHT22;4703;48.748;19.142;2023-09-18T02:11:13;17.50;99.90
9329;DHT22;4703;48.748;19.142;2023-09-18T02:13:40;17.50;99.90
9329;DHT22;4703;48.748;19.142;2023-09-18T02:16:07;17.50;99.90
9329;DHT22;4703;48.748;19.142;2023-09-18T02:18:34;17.50;99.90
9329;DHT22;4703;48.748;19.142;2023-09-18T02:21:01;17.50;99.90
9329;DHT22;4703;48.748;19.142;2023-09-18T02:23:28;17.50;99.90
9329;DHT22;4703;48.748;19.142;2023-09-18T02:25:57;17.50;99.90
9329;DHT22;4703;48.748;19.142;2023-09-18T02:28:24;17.50;99.90
9329;DHT22;4703;48.748;19.142;2023-09-18T02:30:52;17.50;99.90
9329;DHT22;4703;48.748;19.142;2023-09-18T02:33:19;17.50;99.90
9329;DHT22;4703;48.748;19.142;2023-09-18T02:35:46;17.50;99.90
9329;DHT22;4703;48.748;19.142;2023-09-18T02:38:13;17.50;99.90
9329;DHT22;4703;48.748;19.142;2023-09-18T02:40:40;17.50;99.90
9329;DHT22;4703;48.748;19.142;2023-09-18T02:43:07;17.50;99.90
9329;DHT22;4703;48.748;19.142;2023-09-18T02:45:34;17.50;99.90
9329;DHT22;4703;48.748;19.142;2023-09-18T02:48:01;17.50;99.90
9329;DHT22;4703;48.748;19.142;2023-09-18T02:50:29;17.50;99.90
9329;DHT22;4703;48.748;19.142;2023-09-18T02:52:56;18.40;99.90
9329;DHT22;4703;48.748;19.142;2023-09-18T02:55:23;17.50;99.90
9329;DHT22;4703;48.748;19.142;2023-09-18T02:57:50;17.50;99.90
9329;DHT22;4703;48.748;19.142;2023-09-18T03:00:17;18.60;99.90
9329;DHT22;4703;48.748;19.142;2023-09-18T03:02:58;17.50;99.90
9329;DHT22;4703;48.748;19.142;2023-09-18T03:05:26;17.50;99.90
9329;DHT22;4703;48.748;19.142;2023-09-18T03:07:53;17.50;99.90
9329;DHT22;4703;48.748;19.142;2023-09-18T03:10:20;18.10;99.90
9329;DHT22;4703;48.748;19.142;2023-09-18T03:12:50;17.50;99.90
9329;DHT22;4703;48.748;19.142;2023-09-18T03:15:17;17.40;99.90
9329;DHT22;4703;48.748;19.142;2023-09-18T03:17:44;17.50;99.90
9329;DHT22;4703;48.748;19.142;2023-09-18T03:20:11;17.50;99.90
9329;DHT22;4703;48.748;19.142;2023-09-18T03:22:38;17.50;99.90
9329;DHT22;4703;48.748;19.142;2023-09-18T03:25:06;17.40;99.90
9329;DHT22;4703;48.748;19.142;2023-09-18T03:27:33;17.40;99.90
9329;DHT22;4703;48.748;19.142;2023-09-18T03:30:00;17.40;99.90
9329;DHT22;4703;48.748;19.142;2023-09-18T03:32:27;17.40;99.90
9329;DHT22;4703;48.748;19.142;2023-09-18T03:34:54;17.40;99.90
9329;DHT22;4703;48.748;19.142;2023-09-18T03:37:21;18.30;99.90
9329;DHT22;4703;48.748;19.142;2023-09-18T03:39:48;17.40;99.90
9329;DHT22;4703;48.748;19.142;2023-09-18T03:42:16;17.40;99.90
9329;DHT22;4703;48.748;19.142;2023-09-18T03:44:42;17.40;99.90
9329;DHT22;4703;48.748;19.142;2023-09-18T03:47:09;17.40;99.90
9329;DHT22;4703;48.748;19.142;2023-09-18T03:49:38;17.40;99.90
9329;DHT22;4703;48.748;19.142;2023-09-18T03:52:05;17.40;99.90
9329;DHT22;4703;48.748;19.142;2023-09-18T03:54:32;17.40;99.90
9329;DHT22;4703;48.748;19.142;2023-09-18T03:56:59;17.40;99.90
9329;DHT22;4703;48.748;19.142;2023-09-18T03:59:26;17.30;99.90
9329;DHT22;4703;48.748;19.142;2023-09-18T04:01:53;17.40;99.90
9329;DHT22;4703;48.748;19.142;2023-09-18T04:04:20;17.30;99.90
9329;DHT22;4703;48.748;19.142;2023-09-18T04:06:47;17.40;99.90
9329;DHT22;4703;48.748;19.142;2023-09-18T04:09:16;17.30;99.90
9329;DHT22;4703;48.748;19.142;2023-09-18T04:11:44;17.40;99.90
9329;DHT22;4703;48.748;19.142;2023-09-18T04:14:11;17.30;99.90
9329;DHT22;4703;48.748;19.142;2023-09-18T04:16:39;17.40;99.90
9329;DHT22;4703;48.748;19.142;2023-09-18T04:19:08;17.40;99.90
9329;DHT22;4703;48.748;19.142;2023-09-18T04:21:36;17.40;99.90
9329;DHT22;4703;48.748;19.142;2023-09-18T04:24:04;17.40;99.90
9329;DHT22;4703;48.748;19.142;2023-09-18T04:26:31;17.40;99.90
9329;DHT22;4703;48.748;19.142;2023-09-18T04:29:00;17.30;99.90
9329;DHT22;4703;48.748;19.142;2023-09-18T04:31:28;17.30;99.90
9329;DHT22;4703;48.748;19.142;2023-09-18T04:33:55;17.30;99.90
9329;DHT22;4703;48.748;19.142;2023-09-18T04:36:23;17.40;99.90
9329;DHT22;4703;48.748;19.142;2023-09-18T04:38:50;17.30;99.90
9329;DHT22;4703;48.748;19.142;2023-09-18T04:41:18;17.40;99.90
9329;DHT22;4703;48.748;19.142;2023-09-18T04:43:45;17.30;99.90
9329;DHT22;4703;48.748;19.142;2023-09-18T04:46:12;17.30;99.90
9329;DHT22;4703;48.748;19.142;2023-09-18T04:48:39;18.30;99.90
9329;DHT22;4703;48.748;19.142;2023-09-18T04:51:06;17.30;99.90
9329;DHT22;4703;48.748;19.142;2023-09-18T04:53:33;17.40;99.90
9329;DHT22;4703;48.748;19.142;2023-09-18T04:56:00;17.30;99.90
9329;DHT22;4703;48.748;19.142;2023-09-18T04:58:27;17.30;99.90
9329;DHT22;4703;48.748;19.142;2023-09-18T05:00:55;17.30;99.90
9329;DHT22;4703;48.748;19.142;2023-09-18T05:03:22;17.40;99.90
9329;DHT22;4703;48.748;19.142;2023-09-18T05:05:50;17.30;99.90
9329;DHT22;4703;48.748;19.142;2023-09-18T05:08:17;17.40;99.90
9329;DHT22;4703;48.748;19.142;2023-09-18T05:10:44;17.30;99.90
9329;DHT22;4703;48.748;19.142;2023-09-18T05:13:12;17.40;99.90
9329;DHT22;4703;48.748;19.142;2023-09-18T05:15:39;17.50;99.90
9329;DHT22;4703;48.748;19.142;2023-09-18T05:18:06;17.40;99.90
9329;DHT22;4703;48.748;19.142;2023-09-18T05:20:34;17.40;99.90
9329;DHT22;4703;48.748;19.142;2023-09-18T05:23:02;17.40;99.90
9329;DHT22;4703;48.748;19.142;2023-09-18T05:25:29;17.50;99.90
9329;DHT22;4703;48.748;19.142;2023-09-18T05:28:00;17.50;99.90
9329;DHT22;4703;48.748;19.142;2023-09-18T05:30:29;17.50;99.90
9329;DHT22;4703;48.748;19.142;2023-09-18T05:33:00;17.50;99.90
9329;DHT22;4703;48.748;19.142;2023-09-18T05:35:39;17.60;99.90
9329;DHT22;4703;48.748;19.142;2023-09-18T05:38:07;17.60;99.90
9329;DHT22;4703;48.748;19.142;2023-09-18T05:40:36;17.60;99.90
9329;DHT22;4703;48.748;19.142;2023-09-18T05:43:03;17.60;99.90
9329;DHT22;4703;48.748;19.142;2023-09-18T05:45:31;17.70;99.90
9329;DHT22;4703;48.748;19.142;2023-09-18T05:47:59;17.80;99.90
9329;DHT22;4703;48.748;19.142;2023-09-18T05:50:33;17.70;99.90
9329;DHT22;4703;48.748;19.142;2023-09-18T05:53:04;17.70;99.90
9329;DHT22;4703;48.748;19.142;2023-09-18T05:55:32;17.70;99.90
9329;DHT22;4703;48.748;19.142;2023-09-18T05:58:01;17.80;99.90
9329;DHT22;4703;48.748;19.142;2023-09-18T06:00:30;17.90;99.90
9329;DHT22;4703;48.748;19.142;2023-09-18T06:02:58;17.80;99.90
9329;DHT22;4703;48.748;19.142;2023-09-18T06:05:25;17.90;99.90
9329;DHT22;4703;48.748;19.142;2023-09-18T06:07:53;17.90;99.90
9329;DHT22;4703;48.748;19.142;2023-09-18T06:10:20;17.90;99.90
9329;DHT22;4703;48.748;19.142;2023-09-18T06:12:47;17.90;99.90
9329;DHT22;4703;48.748;19.142;2023-09-18T06:15:14;17.90;99.90
9329;DHT22;4703;48.748;19.142;2023-09-18T06:17:43;17.90;99.90
9329;DHT22;4703;48.748;19.142;2023-09-18T06:20:11;18.00;99.90
9329;DHT22;4703;48.748;19.142;2023-09-18T06:22:42;17.90;99.90
9329;DHT22;4703;48.748;19.142;2023-09-18T06:25:10;18.00;99.90
9329;DHT22;4703;48.748;19.142;2023-09-18T06:27:37;17.90;99.90
9329;DHT22;4703;48.748;19.142;2023-09-18T06:30:06;18.00;99.90
9329;DHT22;4703;48.748;19.142;2023-09-18T06:32:33;18.00;99.90
9329;DHT22;4703;48.748;19.142;2023-09-18T06:35:00;18.00;99.90
9329;DHT22;4703;48.748;19.142;2023-09-18T06:37:27;18.10;99.90
9329;DHT22;4703;48.748;19.142;2023-09-18T06:39:55;18.10;99.90
9329;DHT22;4703;48.748;19.142;2023-09-18T06:42:23;18.10;99.90
9329;DHT22;4703;48.748;19.142;2023-09-18T06:44:50;18.20;99.90
9329;DHT22;4703;48.748;19.142;2023-09-18T06:47:17;18.30;99.90
9329;DHT22;4703;48.748;19.142;2023-09-18T06:49:44;18.30;99.90
9329;DHT22;4703;48.748;19.142;2023-09-18T06:52:11;18.30;99.90
9329;DHT22;4703;48.748;19.142;2023-09-18T06:54:39;18.40;99.90
9329;DHT22;4703;48.748;19.142;2023-09-18T06:57:07;18.40;99.90
9329;DHT22;4703;48.748;19.142;2023-09-18T06:59:34;18.50;99.90
9329;DHT22;4703;48.748;19.142;2023-09-18T07:02:02;18.50;99.90
9329;DHT22;4703;48.748;19.142;2023-09-18T07:04:29;18.50;99.90
9329;DHT22;4703;48.748;19.142;2023-09-18T07:06:56;18.50;99.90
9329;DHT22;4703;48.748;19.142;2023-09-18T07:09:23;18.50;99.90
9329;DHT22;4703;48.748;19.142;2023-09-18T07:11:51;18.60;99.90
9329;DHT22;4703;48.748;19.142;2023-09-18T07:14:18;18.60;99.90
9329;DHT22;4703;48.748;19.142;2023-09-18T07:16:46;18.60;99.90
9329;DHT22;4703;48.748;19.142;2023-09-18T07:19:13;18.60;99.90
9329;DHT22;4703;48.748;19.142;2023-09-18T07:21:44;18.60;99.90
9329;DHT22;4703;48.748;19.142;2023-09-18T07:24:11;18.70;99.90
9329;DHT22;4703;48.748;19.142;2023-09-18T07:26:45;18.80;99.90
9329;DHT22;4703;48.748;19.142;2023-09-18T07:29:19;18.90;99.90
9329;DHT22;4703;48.748;19.142;2023-09-18T07:31:46;18.80;99.90
9329;DHT22;4703;48.748;19.142;2023-09-18T07:34:17;18.90;99.90
9329;DHT22;4703;48.748;19.142;2023-09-18T07:36:44;18.90;99.90
9329;DHT22;4703;48.748;19.142;2023-09-18T07:39:11;19.00;99.90
9329;DHT22;4703;48.748;19.142;2023-09-18T07:41:38;19.00;99.90
9329;DHT22;4703;48.748;19.142;2023-09-18T07:44:06;19.10;99.90
9329;DHT22;4703;48.748;19.142;2023-09-18T07:46:33;19.00;99.90
9329;DHT22;4703;48.748;19.142;2023-09-18T07:49:00;19.10;99.90
9329;DHT22;4703;48.748;19.142;2023-09-18T07:51:27;19.10;99.90
9329;DHT22;4703;48.748;19.142;2023-09-18T07:53:54;19.10;99.90
9329;DHT22;4703;48.748;19.142;2023-09-18T07:56:21;19.10;99.90
9329;DHT22;4703;48.748;19.142;2023-09-18T07:58:48;19.20;99.90
9329;DHT22;4703;48.748;19.142;2023-09-18T08:01:15;19.30;99.90
9329;DHT22;4703;48.748;19.142;2023-09-18T08:03:43;19.30;99.90
9329;DHT22;4703;48.748;19.142;2023-09-18T08:06:10;19.30;99.90
9329;DHT22;4703;48.748;19.142;2023-09-18T08:08:38;19.40;99.90
9329;DHT22;4703;48.748;19.142;2023-09-18T08:11:09;19.40;99.90
9329;DHT22;4703;48.748;19.142;2023-09-18T08:13:37;19.50;99.90
9329;DHT22;4703;48.748;19.142;2023-09-18T08:16:06;19.50;99.90
9329;DHT22;4703;48.748;19.142;2023-09-18T08:18:34;19.50;99.90
9329;DHT22;4703;48.748;19.142;2023-09-18T08:21:02;19.60;99.90
9329;DHT22;4703;48.748;19.142;2023-09-18T08:23:29;19.60;99.90
9329;DHT22;4703;48.748;19.142;2023-09-18T08:25:56;19.70;99.90
9329;DHT22;4703;48.748;19.142;2023-09-18T08:28:24;19.70;99.90
9329;DHT22;4703;48.748;19.142;2023-09-18T08:30:51;19.70;99.90
9329;DHT22;4703;48.748;19.142;2023-09-18T08:33:18;19.80;99.90
9329;DHT22;4703;48.748;19.142;2023-09-18T08:35:45;19.90;99.90
9329;DHT22;4703;48.748;19.142;2023-09-18T08:38:16;20.00;99.90
9329;DHT22;4703;48.748;19.142;2023-09-18T08:40:44;20.10;99.90
9329;DHT22;4703;48.748;19.142;2023-09-18T08:43:14;20.10;99.90
9329;DHT22;4703;48.748;19.142;2023-09-18T08:45:53;20.20;99.90
9329;DHT22;4703;48.748;19.142;2023-09-18T08:48:23;20.20;99.90
9329;DHT22;4703;48.748;19.142;2023-09-18T08:50:51;20.20;99.90
9329;DHT22;4703;48.748;19.142;2023-09-18T08:53:19;20.30;99.90
9329;DHT22;4703;48.748;19.142;2023-09-18T08:55:46;20.40;99.90
9329;DHT22;4703;48.748;19.142;2023-09-18T08:58:13;20.50;99.90
9329;DHT22;4703;48.748;19.142;2023-09-18T09:00:41;20.50;99.90
9329;DHT22;4703;48.748;19.142;2023-09-18T09:03:09;20.60;99.90
9329;DHT22;4703;48.748;19.142;2023-09-18T09:05:36;20.70;99.90
9329;DHT22;4703;48.748;19.142;2023-09-18T09:08:03;20.80;99.90
9329;DHT22;4703;48.748;19.142;2023-09-18T09:10:31;20.90;99.90
9329;DHT22;4703;48.748;19.142;2023-09-18T09:12:59;21.10;99.90
9329;DHT22;4703;48.748;19.142;2023-09-18T09:15:28;21.30;99.90
9329;DHT22;4703;48.748;19.142;2023-09-18T09:18:15;21.50;99.90
9329;DHT22;4703;48.748;19.142;2023-09-18T09:20:53;21.70;99.90
9329;DHT22;4703;48.748;19.142;2023-09-18T09:23:29;21.80;99.90
9329;DHT22;4703;48.748;19.142;2023-09-18T09:26:16;22.00;99.90
9329;DHT22;4703;48.748;19.142;2023-09-18T09:28:44;22.20;99.90
9329;DHT22;4703;48.748;19.142;2023-09-18T09:31:29;22.20;99.90
9329;DHT22;4703;48.748;19.142;2023-09-18T09:33:57;22.30;99.90
9329;DHT22;4703;48.748;19.142;2023-09-18T09:36:26;22.40;99.90
9329;DHT22;4703;48.748;19.142;2023-09-18T09:38:57;22.50;99.90
9329;DHT22;4703;48.748;19.142;2023-09-18T09:41:26;22.60;99.90
9329;DHT22;4703;48.748;19.142;2023-09-18T09:43:57;22.80;99.90
9329;DHT22;4703;48.748;19.142;2023-09-18T09:46:25;22.90;99.90
9329;DHT22;4703;48.748;19.142;2023-09-18T09:49:03;23.10;99.90
9329;DHT22;4703;48.748;19.142;2023-09-18T09:51:32;23.20;99.90
9329;DHT22;4703;48.748;19.142;2023-09-18T09:54:01;23.30;99.90
9329;DHT22;4703;48.748;19.142;2023-09-18T09:59:18;23.60;99.90
9329;DHT22;4703;48.748;19.142;2023-09-18T10:01:47;23.60;99.90
9329;DHT22;4703;48.748;19.142;2023-09-18T10:04:18;23.50;99.90
9329;DHT22;4703;48.748;19.142;2023-09-18T10:06:56;23.50;99.90
9329;DHT22;4703;48.748;19.142;2023-09-18T10:09:26;23.50;99.90
9329;DHT22;4703;48.748;19.142;2023-09-18T10:11:56;23.40;99.90
9329;DHT22;4703;48.748;19.142;2023-09-18T10:14:33;23.40;99.90
9329;DHT22;4703;48.748;19.142;2023-09-18T10:17:21;23.30;99.90
9329;DHT22;4703;48.748;19.142;2023-09-18T10:19:58;23.30;99.90
9329;DHT22;4703;48.748;19.142;2023-09-18T10:22:39;23.30;99.90
9329;DHT22;4703;48.748;19.142;2023-09-18T10:25:14;23.40;99.90
9329;DHT22;4703;48.748;19.142;2023-09-18T10:27:50;23.50;99.90
9329;DHT22;4703;48.748;19.142;2023-09-18T10:30:20;23.60;99.50
9329;DHT22;4703;48.748;19.142;2023-09-18T10:32:52;23.60;99.70
9329;DHT22;4703;48.748;19.142;2023-09-18T10:35:21;23.70;99.50
9329;DHT22;4703;48.748;19.142;2023-09-18T10:37:49;23.70;99.60
9329;DHT22;4703;48.748;19.142;2023-09-18T10:40:21;23.80;99.50
9329;DHT22;4703;48.748;19.142;2023-09-18T10:42:50;23.90;99.10
9329;DHT22;4703;48.748;19.142;2023-09-18T10:45:19;23.90;99.40
9329;DHT22;4703;48.748;19.142;2023-09-18T10:47:48;23.90;99.20
9329;DHT22;4703;48.748;19.142;2023-09-18T10:50:24;23.90;99.80
9329;DHT22;4703;48.748;19.142;2023-09-18T10:52:52;23.90;99.60
9329;DHT22;4703;48.748;19.142;2023-09-18T10:55:20;23.90;99.40
9329;DHT22;4703;48.748;19.142;2023-09-18T10:57:55;23.90;99.30
9329;DHT22;4703;48.748;19.142;2023-09-18T11:00:31;23.90;99.50
9329;DHT22;4703;48.748;19.142;2023-09-18T11:03:16;23.80;99.80
9329;DHT22;4703;48.748;19.142;2023-09-18T11:05:46;23.90;99.50
9329;DHT22;4703;48.748;19.142;2023-09-18T11:08:34;23.90;98.90
9329;DHT22;4703;48.748;19.142;2023-09-18T11:11:07;24.00;98.00
9329;DHT22;4703;48.748;19.142;2023-09-18T11:13:44;23.90;98.60
9329;DHT22;4703;48.748;19.142;2023-09-18T11:21:30;24.00;97.90
9329;DHT22;4703;48.748;19.142;2023-09-18T11:24:04;24.00;97.30
9329;DHT22;4703;48.748;19.142;2023-09-18T11:26:37;23.90;97.70
9329;DHT22;4703;48.748;19.142;2023-09-18T11:29:13;23.80;98.50
9329;DHT22;4703;48.748;19.142;2023-09-18T11:34:22;23.90;97.90
9329;DHT22;4703;48.748;19.142;2023-09-18T11:36:50;23.90;98.10
9329;DHT22;4703;48.748;19.142;2023-09-18T11:39:40;24.00;98.10
9329;DHT22;4703;48.748;19.142;2023-09-18T11:42:13;24.10;98.10
9329;DHT22;4703;48.748;19.142;2023-09-18T11:44:45;24.10;98.00
9329;DHT22;4703;48.748;19.142;2023-09-18T11:47:16;24.10;97.60
9329;DHT22;4703;48.748;19.142;2023-09-18T11:49:56;24.10;97.80
9329;DHT22;4703;48.748;19.142;2023-09-18T11:52:29;24.10;97.60
9329;DHT22;4703;48.748;19.142;2023-09-18T11:54:59;24.10;97.90
9329;DHT22;4703;48.748;19.142;2023-09-18T11:57:27;24.10;98.30
9329;DHT22;4703;48.748;19.142;2023-09-18T11:59:56;24.10;98.20
9329;DHT22;4703;48.748;19.142;2023-09-18T12:02:28;24.10;98.30
9329;DHT22;4703;48.748;19.142;2023-09-18T12:05:16;24.10;98.20
9329;DHT22;4703;48.748;19.142;2023-09-18T12:07:46;24.20;98.50
9329;DHT22;4703;48.748;19.142;2023-09-18T12:10:18;24.20;98.40
9329;DHT22;4703;48.748;19.142;2023-09-18T12:12:47;24.20;97.90
9329;DHT22;4703;48.748;19.142;2023-09-18T12:15:18;24.10;98.00
9329;DHT22;4703;48.748;19.142;2023-09-18T12:17:46;24.10;98.20
9329;DHT22;4703;48.748;19.142;2023-09-18T12:20:17;24.10;97.90
9329;DHT22;4703;48.748;19.142;2023-09-18T12:22:50;24.00;98.00
9329;DHT22;4703;48.748;19.142;2023-09-18T12:25:18;23.90;98.00
9329;DHT22;4703;48.748;19.142;2023-09-18T12:27:45;23.80;98.50
9329;DHT22;4703;48.748;19.142;2023-09-18T12:30:13;23.80;98.80
9329;DHT22;4703;48.748;19.142;2023-09-18T12:32:49;23.80;98.70
9329;DHT22;4703;48.748;19.142;2023-09-18T12:35:17;23.80;98.30
9329;DHT22;4703;48.748;19.142;2023-09-18T12:37:47;23.80;98.20
9329;DHT22;4703;48.748;19.142;2023-09-18T12:40:22;23.80;98.60
9329;DHT22;4703;48.748;19.142;2023-09-18T12:42:57;23.80;98.50
9329;DHT22;4703;48.748;19.142;2023-09-18T12:45:29;23.80;98.50
9329;DHT22;4703;48.748;19.142;2023-09-18T12:47:57;23.80;98.00
9329;DHT22;4703;48.748;19.142;2023-09-18T12:50:26;23.80;98.30
9329;DHT22;4703;48.748;19.142;2023-09-18T12:52:53;23.70;98.50
9329;DHT22;4703;48.748;19.142;2023-09-18T12:55:25;23.70;98.10
9329;DHT22;4703;48.748;19.142;2023-09-18T12:57:53;23.70;98.40
9329;DHT22;4703;48.748;19.142;2023-09-18T13:00:21;23.70;98.50
9329;DHT22;4703;48.748;19.142;2023-09-18T13:02:50;23.80;98.40
9329;DHT22;4703;48.748;19.142;2023-09-18T13:05:22;23.70;98.20
9329;DHT22;4703;48.748;19.142;2023-09-18T13:07:53;23.70;98.30
9329;DHT22;4703;48.748;19.142;2023-09-18T13:10:21;23.60;99.10
9329;DHT22;4703;48.748;19.142;2023-09-18T13:12:53;23.60;98.20
9329;DHT22;4703;48.748;19.142;2023-09-18T13:15:27;23.60;98.30
9329;DHT22;4703;48.748;19.142;2023-09-18T13:17:58;23.60;98.10
9329;DHT22;4703;48.748;19.142;2023-09-18T13:20:31;23.70;98.00
9329;DHT22;4703;48.748;19.142;2023-09-18T13:22:59;23.80;98.20
9329;DHT22;4703;48.748;19.142;2023-09-18T13:25:41;23.90;98.10
9329;DHT22;4703;48.748;19.142;2023-09-18T13:28:13;23.90;98.10
9329;DHT22;4703;48.748;19.142;2023-09-18T13:30:41;24.00;97.90
9329;DHT22;4703;48.748;19.142;2023-09-18T13:35:40;24.10;97.90
9329;DHT22;4703;48.748;19.142;2023-09-18T13:38:09;24.10;97.90
9329;DHT22;4703;48.748;19.142;2023-09-18T13:40:38;24.10;97.80
9329;DHT22;4703;48.748;19.142;2023-09-18T13:43:08;24.10;97.70
9329;DHT22;4703;48.748;19.142;2023-09-18T13:45:36;24.10;97.60
9329;DHT22;4703;48.748;19.142;2023-09-18T13:48:05;24.00;97.60
9329;DHT22;4703;48.748;19.142;2023-09-18T13:50:33;24.00;97.50
9329;DHT22;4703;48.748;19.142;2023-09-18T13:53:04;24.00;97.60
9329;DHT22;4703;48.748;19.142;2023-09-18T13:55:32;24.00;97.40
9329;DHT22;4703;48.748;19.142;2023-09-18T13:58:00;24.00;97.70
9329;DHT22;4703;48.748;19.142;2023-09-18T14:00:31;23.90;98.10
9329;DHT22;4703;48.748;19.142;2023-09-18T14:02:59;23.90;98.00
9329;DHT22;4703;48.748;19.142;2023-09-18T14:05:26;24.00;97.80
9329;DHT22;4703;48.748;19.142;2023-09-18T14:07:55;24.00;97.50
9329;DHT22;4703;48.748;19.142;2023-09-18T14:10:27;24.00;97.40
9329;DHT22;4703;48.748;19.142;2023-09-18T14:12:54;24.10;97.40
9329;DHT22;4703;48.748;19.142;2023-09-18T14:15:21;24.10;97.50
9329;DHT22;4703;48.748;19.142;2023-09-18T14:17:49;24.10;97.80
9329;DHT22;4703;48.748;19.142;2023-09-18T14:20:16;24.10;97.30
9329;DHT22;4703;48.748;19.142;2023-09-18T14:22:46;24.00;97.60
9329;DHT22;4703;48.748;19.142;2023-09-18T14:25:17;24.10;97.50
9329;DHT22;4703;48.748;19.142;2023-09-18T14:27:47;24.00;97.60
9329;DHT22;4703;48.748;19.142;2023-09-18T14:30:14;24.00;97.80
9329;DHT22;4703;48.748;19.142;2023-09-18T14:32:41;23.90;97.50
9329;DHT22;4703;48.748;19.142;2023-09-18T14:35:09;23.90;97.40
9329;DHT22;4703;48.748;19.142;2023-09-18T14:37:37;23.80;97.10
9329;DHT22;4703;48.748;19.142;2023-09-18T14:40:05;23.80;97.20
9329;DHT22;4703;48.748;19.142;2023-09-18T14:42:32;23.70;97.10
9329;DHT22;4703;48.748;19.142;2023-09-18T14:45:00;23.70;97.10
9329;DHT22;4703;48.748;19.142;2023-09-18T14:47:29;23.60;97.30
9329;DHT22;4703;48.748;19.142;2023-09-18T14:49:56;23.50;97.20
9329;DHT22;4703;48.748;19.142;2023-09-18T14:52:25;23.50;97.40
9329;DHT22;4703;48.748;19.142;2023-09-18T14:54:52;23.50;97.60
9329;DHT22;4703;48.748;19.142;2023-09-18T14:57:20;23.40;97.70
9329;DHT22;4703;48.748;19.142;2023-09-18T14:59:47;23.40;97.90
9329;DHT22;4703;48.748;19.142;2023-09-18T15:02:15;23.40;98.00
9329;DHT22;4703;48.748;19.142;2023-09-18T15:04:44;23.40;98.10
9329;DHT22;4703;48.748;19.142;2023-09-18T15:07:12;23.40;97.90
9329;DHT22;4703;48.748;19.142;2023-09-18T15:09:39;23.40;97.90
9329;DHT22;4703;48.748;19.142;2023-09-18T15:12:09;23.50;97.90
9329;DHT22;4703;48.748;19.142;2023-09-18T15:14:38;23.40;97.60
9329;DHT22;4703;48.748;19.142;2023-09-18T15:17:05;23.30;97.70
9329;DHT22;4703;48.748;19.142;2023-09-18T15:19:34;23.30;97.60
9329;DHT22;4703;48.748;19.142;2023-09-18T15:22:01;23.30;97.60
9329;DHT22;4703;48.748;19.142;2023-09-18T15:24:29;23.30;97.50
9329;DHT22;4703;48.748;19.142;2023-09-18T15:26:56;23.20;97.70
9329;DHT22;4703;48.748;19.142;2023-09-18T15:29:23;23.20;97.90
9329;DHT22;4703;48.748;19.142;2023-09-18T15:31:51;23.10;97.70
9329;DHT22;4703;48.748;19.142;2023-09-18T15:34:18;23.10;98.00
9329;DHT22;4703;48.748;19.142;2023-09-18T15:36:45;23.00;98.40
9329;DHT22;4703;48.748;19.142;2023-09-18T15:39:12;23.00;98.40
9329;DHT22;4703;48.748;19.142;2023-09-18T15:41:40;23.00;98.50
9329;DHT22;4703;48.748;19.142;2023-09-18T15:44:07;22.90;98.50
9329;DHT22;4703;48.748;19.142;2023-09-18T15:46:37;22.80;98.50
9329;DHT22;4703;48.748;19.142;2023-09-18T15:49:04;22.80;98.60
9329;DHT22;4703;48.748;19.142;2023-09-18T15:51:31;22.80;98.60
9329;DHT22;4703;48.748;19.142;2023-09-18T15:53:58;22.80;98.80
9329;DHT22;4703;48.748;19.142;2023-09-18T15:56:25;22.70;98.80
9329;DHT22;4703;48.748;19.142;2023-09-18T15:58:52;22.70;98.80
9329;DHT22;4703;48.748;19.142;2023-09-18T16:01:19;22.80;98.90
9329;DHT22;4703;48.748;19.142;2023-09-18T16:03:47;22.70;98.90
9329;DHT22;4703;48.748;19.142;2023-09-18T16:06:18;22.70;99.10
9329;DHT22;4703;48.748;19.142;2023-09-18T16:08:48;22.70;99.10
9329;DHT22;4703;48.748;19.142;2023-09-18T16:11:16;22.70;99.00